Time;durP1;ratioP1;P1;durP2;ratioP2;P2;SDS_P1;SDS_P2;PMS_P1;PMS_P2;Temp;Humidity;BMP_temperature;BMP_pressure;BME280_temperature;BME280_humidity;BME280_pressure;Samples;Min_cycle;Max_cycle;Signal;HPM_P1;HPM_P2
2023/02/18 00:01:41;;;;;;;5.53;3.63;;;;;;;7.18;53.76;101874.94;4992441;28;20035;-81
2023/02/18 00:04:06;;;;;;;8.13;4.13;;;;;;;7.30;53.67;101894.47;4992650;28;20026;-80
2023/02/18 00:06:33;;;;;;;4.90;3.30;;;;;;;7.38;53.12;101912.38;5009004;28;20042;-80
2023/02/18 00:09:00;;;;;;;7.95;4.90;;;;;;;7.37;53.13;101908.09;4992397;28;20521;-80
2023/02/18 00:11:26;;;;;;;9.45;3.17;;;;;;;7.04;53.28;101853.69;4991793;28;20034;-80
2023/02/18 00:13:54;;;;;;;8.65;3.97;;;;;;;7.27;52.91;101899.66;5008785;28;20080;-80
2023/02/18 00:16:19;;;;;;;6.82;4.28;;;;;;;7.38;52.96;101910.66;4991939;28;20425;-80
2023/02/18 00:18:45;;;;;;;7.43;3.42;;;;;;;7.30;54.03;101904.78;4992481;28;20540;-80
2023/02/18 00:21:10;;;;;;;7.95;3.25;;;;;;;7.35;54.15;101910.69;4992159;28;20034;-81
2023/02/18 00:23:36;;;;;;;5.32;3.10;;;;;;;7.27;54.64;101907.38;4992248;28;20034;-80
2023/02/18 00:26:04;;;;;;;9.23;3.25;;;;;;;7.27;53.73;101904.81;5008582;28;20059;-80
2023/02/18 00:28:29;;;;;;;7.15;3.40;;;;;;;7.31;53.16;101903.06;4992137;28;20042;-80
2023/02/18 00:30:54;;;;;;;4.05;3.17;;;;;;;7.34;53.04;101901.28;4991908;28;20036;-80
2023/02/18 00:33:20;;;;;;;5.05;3.05;;;;;;;7.37;53.50;101882.34;5008509;28;20421;-80
2023/02/18 00:35:45;;;;;;;5.68;4.10;;;;;;;7.31;54.23;101879.88;5008399;28;20132;-80
2023/02/18 00:38:11;;;;;;;8.05;4.88;;;;;;;7.10;53.48;101850.19;4975556;28;20537;-80
2023/02/18 00:40:37;;;;;;;5.15;3.00;;;;;;;7.31;52.38;101885.03;4992107;28;20084;-80
2023/02/18 00:43:03;;;;;;;6.38;2.85;;;;;;;7.46;51.87;101853.88;4992126;28;20029;-80
2023/02/18 00:45:28;;;;;;;5.32;2.75;;;;;;;7.76;50.90;101879.13;4991640;28;20402;-80
2023/02/18 00:47:54;;;;;;;5.95;2.75;;;;;;;7.90;50.30;101883.19;4991985;28;20085;-80
2023/02/18 00:50:20;;;;;;;5.57;3.03;;;;;;;8.03;50.15;101884.66;4991790;28;20026;-80
2023/02/18 00:52:45;;;;;;;3.00;2.28;;;;;;;8.18;49.46;101865.50;4991869;28;20505;-80
2023/02/18 00:55:10;;;;;;;5.53;3.05;;;;;;;8.23;49.29;101846.47;4991466;28;20034;-80
2023/02/18 00:57:36;;;;;;;5.55;3.03;;;;;;;8.55;48.38;101860.47;4991651;28;20493;-80
2023/02/18 01:00:04;;;;;;;4.00;2.33;;;;;;;8.66;48.28;101857.69;4991410;28;20425;-81
2023/02/18 01:02:29;;;;;;;4.13;3.28;;;;;;;8.85;47.36;101872.72;5007985;28;20030;-80
2023/02/18 01:04:55;;;;;;;5.88;2.75;;;;;;;8.91;47.59;101875.16;5007886;28;20030;-80
2023/02/18 01:07:20;;;;;;;3.83;2.90;;;;;;;8.86;46.92;101861.53;4991368;28;20084;-80
2023/02/18 01:09:45;;;;;;;5.07;3.00;;;;;;;9.03;46.87;101868.88;4991431;28;20037;-80
2023/02/18 01:12:11;;;;;;;2.47;1.60;;;;;;;9.11;46.34;101866.13;4991336;28;20088;-81
2023/02/18 01:14:36;;;;;;;4.28;2.42;;;;;;;9.09;46.35;101852.41;4991155;28;20425;-80
2023/02/18 01:17:02;;;;;;;4.20;3.00;;;;;;;9.19;46.22;101859.91;5007614;28;20034;-80
2023/02/18 01:19:27;;;;;;;6.05;2.83;;;;;;;9.33;45.45;101843.22;4975131;28;20030;-80
2023/02/18 01:21:53;;;;;;;5.63;2.78;;;;;;;9.44;45.38;101826.59;4974996;28;20383;-80
2023/02/18 01:24:18;;;;;;;5.97;2.88;;;;;;;9.27;45.05;101779.69;5007464;28;20037;-80
2023/02/18 01:26:44;;;;;;;3.65;2.65;;;;;;;9.30;45.43;101808.00;4991004;28;20030;-80
2023/02/18 01:29:09;;;;;;;5.82;3.35;;;;;;;9.50;45.38;101838.50;4990622;28;20425;-80
2023/02/18 01:31:34;;;;;;;4.88;2.90;;;;;;;9.64;44.74;101835.56;4991023;28;20030;-80
2023/02/18 01:34:00;;;;;;;4.30;2.72;;;;;;;9.78;44.31;101838.63;4990801;28;20045;-80
2023/02/18 01:36:25;;;;;;;3.03;2.28;;;;;;;9.79;44.20;101824.81;5006980;28;20037;-80
2023/02/18 01:38:52;;;;;;;2.42;2.20;;;;;;;9.96;43.64;101837.31;4990580;28;20386;-80
2023/02/18 01:41:17;;;;;;;5.32;2.92;;;;;;;9.99;43.76;101834.63;4990659;28;20057;-80
2023/02/18 01:43:43;;;;;;;4.88;2.55;;;;;;;9.95;43.86;101826.13;5007003;28;20477;-80
2023/02/18 01:46:26;;;;;;;4.32;3.47;;;;;;;9.85;43.56;101818.66;5007141;28;20027;-80
2023/02/18 01:48:57;;;;;;;5.40;2.40;;;;;;;9.90;43.53;101807.28;5006980;28;20080;-81
2023/02/18 01:51:31;;;;;;;3.72;2.17;;;;;;;9.99;42.93;101804.44;5006459;28;20026;-80
2023/02/18 01:54:02;;;;;;;3.50;2.30;;;;;;;10.02;42.84;101796.59;5006983;28;20026;-80
2023/02/18 01:56:37;;;;;;;10.23;2.67;;;;;;;10.23;43.01;101820.22;4991487;28;20034;-80
2023/02/18 01:59:05;;;;;;;8.27;3.08;;;;;;;10.00;42.42;101793.22;4990228;28;20489;-81
2023/02/18 02:01:30;;;;;;;3.13;2.10;;;;;;;10.20;42.68;101809.91;5006634;28;20165;-80
2023/02/18 02:03:56;;;;;;;3.28;1.77;;;;;;;10.20;42.53;101809.91;4990679;28;20038;-80
2023/02/18 02:06:21;;;;;;;4.82;1.98;;;;;;;10.26;42.36;101814.94;4990512;28;20405;-80
2023/02/18 02:08:48;;;;;;;3.38;2.65;;;;;;;10.25;43.08;101818.44;4990309;28;20034;-80
2023/02/18 02:11:22;;;;;;;3.40;1.70;;;;;;;10.19;42.86;101813.38;4990325;28;20037;-80
2023/02/18 02:13:55;;;;;;;4.13;2.30;;;;;;;10.22;42.66;101813.31;4973818;28;20461;-80
2023/02/18 02:16:44;;;;;;;3.13;2.63;;;;;;;10.18;42.73;101807.38;5006602;28;20030;-80
2023/02/18 02:19:57;;;;;;;3.40;2.72;;;;;;;10.19;42.50;101818.56;4990053;28;20418;-80
2023/02/18 02:22:47;;;;;;;1.92;1.48;;;;;;;10.21;42.54;101829.69;4988986;28;20060;-80
2023/02/18 02:25:26;;;;;;;3.35;1.77;;;;;;;10.21;42.35;101832.28;4989248;28;20069;-80
2023/02/18 02:28:16;;;;;;;3.13;1.50;;;;;;;10.20;42.26;101809.91;5001336;28;20506;-80
2023/02/18 02:31:02;;;;;;;5.75;2.00;;;;;;;10.23;42.23;101813.31;4991673;28;20088;-81
2023/02/18 02:33:58;;;;;;;4.32;2.50;;;;;;;10.32;42.17;101835.44;5005941;28;20026;-80
2023/02/18 02:36:59;;;;;;;5.15;2.67;;;;;;;9.96;41.98;101776.09;5006327;28;20038;-80
2023/02/18 02:39:33;;;;;;;3.08;1.88;;;;;;;10.24;41.87;101814.16;5006154;28;20568;-80
2023/02/18 02:42:23;;;;;;;5.60;3.40;;;;;;;10.20;41.80;101805.56;4989503;28;20101;-80
2023/02/18 02:44:52;;;;;;;7.90;2.97;;;;;;;10.30;41.97;101804.44;5006366;28;20032;-80
2023/02/18 02:47:25;;;;;;;2.60;1.95;;;;;;;10.38;41.63;101809.41;5006427;28;20031;-80
2023/02/18 02:50:08;;;;;;;4.68;2.78;;;;;;;10.24;42.00;101790.88;4990860;28;20406;-80
2023/02/18 02:52:46;;;;;;;2.85;2.08;;;;;;;10.37;41.83;101802.53;4989712;28;20407;-80
2023/02/18 02:55:12;;;;;;;3.58;2.17;;;;;;;10.46;41.85;101820.38;5006095;28;20030;-80
2023/02/18 02:57:49;;;;;;;2.03;1.55;;;;;;;10.41;41.28;101824.00;4989625;28;20031;-80
2023/02/18 03:00:17;;;;;;;3.10;1.85;;;;;;;10.45;41.87;101831.63;4989620;28;20027;-80
2023/02/18 03:03:14;;;;;;;2.63;1.55;;;;;;;10.48;41.67;101831.53;4990031;28;20029;-80
2023/02/18 03:05:46;;;;;;;4.43;2.55;;;;;;;10.62;41.84;101832.00;5006195;28;20037;-80
2023/02/18 03:08:36;;;;;;;2.20;1.35;;;;;;;10.62;41.58;101831.16;4990765;28;20120;-80
2023/02/18 03:11:06;;;;;;;2.60;1.63;;;;;;;10.42;41.22;101803.28;4990371;28;20049;-80
2023/02/18 03:14:04;;;;;;;2.20;1.58;;;;;;;10.66;41.47;101818.94;5005874;28;20097;-80
2023/02/18 03:16:46;;;;;;;2.80;1.92;;;;;;;10.64;42.07;101811.22;4990103;28;20104;-80
2023/02/18 03:19:18;;;;;;;2.33;1.90;;;;;;;10.67;41.44;101805.09;5006393;28;20408;-80
2023/02/18 03:21:47;;;;;;;2.55;2.03;;;;;;;10.62;41.22;101782.81;4990868;28;20026;-81
2023/02/18 03:24:13;;;;;;;2.38;1.88;;;;;;;10.71;40.87;101784.25;4973414;28;20093;-80
2023/02/18 03:26:43;;;;;;;2.15;1.48;;;;;;;10.78;40.50;101792.69;5005387;28;20027;-80
2023/02/18 03:29:08;;;;;;;2.80;1.58;;;;;;;10.91;41.15;101801.75;4989403;28;20064;-80
2023/02/18 03:31:34;;;;;;;2.00;1.40;;;;;;;10.99;40.12;101802.34;5006007;28;20034;-80
2023/02/18 03:34:06;;;;;;;3.15;1.63;;;;;;;11.10;39.76;101795.09;4989923;28;20056;-80
2023/02/18 03:36:32;;;;;;;3.65;2.28;;;;;;;11.15;39.56;101782.84;4973365;28;20088;-80
2023/02/18 03:39:09;;;;;;;0.60;0.60;;;;;;;11.04;39.38;101758.19;4973402;28;20449;-81
2023/02/18 03:41:35;;;;;;;3.10;2.05;;;;;;;11.36;38.82;101781.28;4989309;28;20026;-80
2023/02/18 03:44:05;;;;;;;3.63;1.00;;;;;;;11.33;38.90;101770.19;5005838;28;20579;-80
2023/02/18 03:46:30;;;;;;;2.92;2.15;;;;;;;11.37;39.20;101782.13;4991811;28;20540;-81
2023/02/18 03:48:56;;;;;;;3.92;2.15;;;;;;;11.46;38.99;101784.41;4993027;28;20026;-80
2023/02/18 03:51:21;;;;;;;5.43;3.33;;;;;;;11.44;39.38;101786.22;4992861;28;20030;-80
2023/02/18 03:53:46;;;;;;;3.03;1.60;;;;;;;11.54;39.35;101790.19;5008903;28;20685;-81
2023/02/18 03:56:12;;;;;;;2.58;1.88;;;;;;;11.33;39.33;101765.00;4992601;28;20034;-80
2023/02/18 03:58:37;;;;;;;3.97;1.85;;;;;;;11.51;39.46;101792.88;4992899;28;20026;-80
2023/02/18 04:01:03;;;;;;;3.58;2.42;;;;;;;11.37;39.54;101771.75;5008834;28;20034;-80
2023/02/18 04:03:29;;;;;;;2.28;1.80;;;;;;;11.40;39.54;101777.69;5008805;28;20027;-80
2023/02/18 04:05:54;;;;;;;3.22;1.77;;;;;;;11.36;39.86;101770.06;4992505;28;20104;-80
2023/02/18 04:08:20;;;;;;;3.50;2.33;;;;;;;11.46;39.96;101766.28;5008442;28;20049;-80
2023/02/18 04:10:45;;;;;;;2.90;2.17;;;;;;;11.37;40.56;101740.66;4992916;28;20049;-80
2023/02/18 04:13:11;;;;;;;4.72;2.10;;;;;;;11.29;40.11;101747.84;4993744;28;20030;-80
2023/02/18 04:15:36;;;;;;;3.35;2.13;;;;;;;11.32;40.73;101747.78;5008820;28;20033;-80
2023/02/18 04:18:02;;;;;;;1.80;1.38;;;;;;;11.44;39.67;101775.84;4992452;28;20026;-80
2023/02/18 04:20:28;;;;;;;2.60;2.33;;;;;;;11.37;40.16;101762.25;5008453;28;20038;-80
2023/02/18 04:22:53;;;;;;;5.72;2.55;;;;;;;11.38;39.66;101752.72;4975794;28;20022;-80
2023/02/18 04:25:18;;;;;;;3.67;2.03;;;;;;;11.48;40.01;101770.50;4992374;28;20391;-80
2023/02/18 04:27:44;;;;;;;2.40;1.92;;;;;;;11.55;39.42;101778.91;5008290;28;20136;-80
2023/02/18 04:30:10;;;;;;;2.90;2.13;;;;;;;11.45;39.28;101765.44;5008408;28;20034;-80
2023/02/18 04:32:35;;;;;;;3.08;2.00;;;;;;;11.64;39.67;101781.19;5008598;28;20030;-80
2023/02/18 04:35:01;;;;;;;1.73;1.33;;;;;;;11.61;39.64;101770.94;4992172;28;20022;-80
2023/02/18 04:37:26;;;;;;;2.20;1.45;;;;;;;11.61;39.05;101755.38;4991978;28;20034;-80
2023/02/18 04:39:51;;;;;;;1.67;1.17;;;;;;;11.71;39.09;101767.13;5008718;28;20038;-80
2023/02/18 04:42:17;;;;;;;4.70;1.98;;;;;;;11.57;38.80;101739.97;5008160;28;20030;-81
2023/02/18 04:44:42;;;;;;;4.90;3.17;;;;;;;11.75;38.41;101752.28;5008105;28;20038;-80
2023/02/18 04:47:08;;;;;;;3.53;2.08;;;;;;;11.76;38.28;101749.63;5008084;28;20512;-80
2023/02/18 04:49:34;;;;;;;1.92;1.52;;;;;;;11.84;38.59;101751.16;5008205;28;20038;-81
2023/02/18 04:51:59;;;;;;;2.97;2.00;;;;;;;11.87;38.17;101740.66;4991426;28;20034;-80
2023/02/18 04:54:25;;;;;;;2.55;1.48;;;;;;;11.92;38.11;101730.97;4975593;28;20026;-80
2023/02/18 04:56:50;;;;;;;2.20;1.58;;;;;;;12.03;38.12;101746.97;5007424;28;20413;-80
2023/02/18 04:59:16;;;;;;;2.40;1.70;;;;;;;12.09;38.41;101757.09;4991873;28;20030;-80
2023/02/18 05:01:41;;;;;;;6.97;2.15;;;;;;;11.75;38.42;101711.66;4975393;28;20640;-80
2023/02/18 05:04:06;;;;;;;2.17;1.95;;;;;;;12.02;39.12;101764.28;5007768;28;20034;-80
2023/02/18 05:06:32;;;;;;;2.58;1.92;;;;;;;11.93;38.54;101756.00;4991165;28;20030;-80
2023/02/18 05:08:57;;;;;;;2.90;1.30;;;;;;;11.91;38.78;101760.41;4991307;28;20560;-80
2023/02/18 05:11:23;;;;;;;2.22;1.55;;;;;;;11.79;39.13;101748.66;4991249;28;20038;-80
2023/02/18 05:13:48;;;;;;;2.05;1.65;;;;;;;11.83;39.06;101755.50;4991352;28;20042;-80
2023/02/18 05:16:14;;;;;;;3.15;2.17;;;;;;;11.88;38.92;101760.50;5007574;28;20088;-80
2023/02/18 05:18:39;;;;;;;0.90;0.80;;;;;;;11.71;38.30;101741.19;4991345;28;20684;-80
2023/02/18 05:21:05;;;;;;;3.13;2.17;;;;;;;11.74;38.59;101751.44;5007368;28;20089;-80
2023/02/18 05:23:30;;;;;;;1.25;1.13;;;;;;;11.77;38.32;101756.50;4991218;28;20026;-80
2023/02/18 05:25:56;;;;;;;2.05;1.50;;;;;;;11.75;38.52;101741.91;4991166;28;20030;-80
2023/02/18 05:28:21;;;;;;;2.17;1.50;;;;;;;11.71;38.62;101751.56;4990940;28;20501;-80
2023/02/18 05:30:46;;;;;;;3.72;1.70;;;;;;;11.62;38.53;101743.25;4991135;28;20104;-80
2023/02/18 05:33:12;;;;;;;1.35;1.25;;;;;;;11.68;38.68;101763.75;4992550;28;20049;-80
2023/02/18 05:35:37;;;;;;;2.70;1.33;;;;;;;11.69;38.57;101758.53;4990783;28;20505;-80
2023/02/18 05:38:03;;;;;;;6.78;1.17;;;;;;;11.61;39.03;101741.59;5006978;28;20030;-80
2023/02/18 05:40:28;;;;;;;2.70;1.83;;;;;;;11.77;38.75;101766.88;4990894;28;20026;-81
2023/02/18 05:42:54;;;;;;;2.65;1.50;;;;;;;11.67;39.03;101754.31;4974739;28;20040;-80
2023/02/18 05:45:19;;;;;;;2.53;1.45;;;;;;;11.73;39.04;101765.31;4991190;28;20034;-80
2023/02/18 05:47:45;;;;;;;2.40;1.38;;;;;;;11.63;38.94;101757.91;4990811;28;20031;-80
2023/02/18 05:50:10;;;;;;;7.28;2.22;;;;;;;11.64;39.50;101750.09;4991251;28;20497;-80
2023/02/18 05:52:36;;;;;;;2.38;1.17;;;;;;;11.64;39.28;101751.84;4991972;28;20120;-80
2023/02/18 05:55:01;;;;;;;2.25;2.00;;;;;;;11.56;38.89;101731.34;5007072;28;20118;-81
2023/02/18 05:57:27;;;;;;;3.92;1.48;;;;;;;11.77;38.52;101760.84;4990624;28;20387;-80
2023/02/18 05:59:52;;;;;;;1.55;1.33;;;;;;;11.60;38.61;101743.31;5006990;28;20405;-80
2023/02/18 06:02:18;;;;;;;2.08;1.50;;;;;;;11.71;38.07;101746.38;5007217;28;20030;-80
2023/02/18 06:04:43;;;;;;;1.63;1.42;;;;;;;11.85;37.82;101763.22;5006807;28;20037;-80
2023/02/18 06:07:08;;;;;;;3.55;2.13;;;;;;;11.89;38.17;101750.06;4990412;28;20030;-80
2023/02/18 06:09:34;;;;;;;5.28;2.10;;;;;;;12.00;37.75;101765.25;4973570;28;20022;-80
2023/02/18 06:11:59;;;;;;;2.15;1.52;;;;;;;12.13;37.34;101768.22;4990458;28;20041;-80
2023/02/18 06:14:25;;;;;;;2.13;1.95;;;;;;;12.16;37.13;101760.31;4990437;28;20034;-80
2023/02/18 06:16:50;;;;;;;2.17;1.10;;;;;;;12.09;36.72;101738.94;5006249;28;20138;-81
2023/02/18 06:19:16;;;;;;;1.83;1.45;;;;;;;12.30;37.20;101756.31;4989807;28;20088;-80
2023/02/18 06:21:41;;;;;;;1.60;1.08;;;;;;;12.31;36.70;101760.59;5006667;28;20485;-80
2023/02/18 06:24:07;;;;;;;1.80;1.30;;;;;;;12.48;36.76;101780.69;4990203;28;20030;-80
2023/02/18 06:26:33;;;;;;;1.95;1.38;;;;;;;12.44;36.45;101770.50;4990222;28;20084;-80
2023/02/18 06:28:58;;;;;;;2.95;1.90;;;;;;;12.49;37.39;101773.78;5006073;28;20058;-80
2023/02/18 06:31:24;;;;;;;1.70;1.45;;;;;;;12.49;37.36;101781.56;4990208;28;20022;-80
2023/02/18 06:33:49;;;;;;;2.28;1.55;;;;;;;12.27;37.21;101740.00;4989867;28;20034;-81
2023/02/18 06:36:15;;;;;;;2.00;1.30;;;;;;;12.51;37.16;101795.34;4991026;28;20033;-81
2023/02/18 06:38:41;;;;;;;2.67;1.83;;;;;;;12.44;37.06;101752.34;4990105;28;20034;-80
2023/02/18 06:41:07;;;;;;;1.17;1.05;;;;;;;12.44;37.43;101765.31;4989904;28;20500;-81
2023/02/18 06:43:32;;;;;;;2.17;1.27;;;;;;;12.45;37.44;101765.25;4989650;28;20037;-80
2023/02/18 06:45:58;;;;;;;2.58;1.40;;;;;;;12.57;37.05;101777.75;5005910;28;20450;-80
2023/02/18 06:48:23;;;;;;;2.03;1.40;;;;;;;12.58;37.22;101776.00;4989693;28;20037;-80
2023/02/18 06:50:49;;;;;;;1.08;0.88;;;;;;;12.58;37.45;101776.84;4989693;28;20092;-80
2023/02/18 06:53:15;;;;;;;2.58;1.42;;;;;;;12.52;37.60;101776.25;4990013;28;20039;-80
2023/02/18 06:55:41;;;;;;;1.55;1.15;;;;;;;12.34;37.89;101757.88;4989887;28;20031;-81
2023/02/18 06:58:06;;;;;;;1.88;1.60;;;;;;;12.44;38.08;101757.53;5006121;28;20510;-80
2023/02/18 07:00:32;;;;;;;2.50;2.03;;;;;;;12.63;38.03;101785.31;5006274;28;20038;-80
2023/02/18 07:02:57;;;;;;;1.90;1.60;;;;;;;12.48;37.91;101769.47;5005723;28;20034;-80
2023/02/18 07:05:23;;;;;;;4.40;2.13;;;;;;;12.29;38.00;101728.69;4989630;28;20406;-80
2023/02/18 07:07:48;;;;;;;1.23;0.95;;;;;;;12.63;38.10;101795.69;4989824;28;20057;-80
2023/02/18 07:10:14;;;;;;;2.35;1.40;;;;;;;12.41;37.66;101762.84;5006204;28;20030;-80
2023/02/18 07:12:39;;;;;;;5.40;2.15;;;;;;;12.52;37.82;101778.84;4989684;28;20486;-80
2023/02/18 07:15:05;;;;;;;9.18;1.98;;;;;;;12.61;37.46;101784.53;4989705;28;20038;-80
2023/02/18 07:17:30;;;;;;;2.13;1.60;;;;;;;12.66;37.81;101792.13;4989276;28;20030;-80
2023/02/18 07:19:56;;;;;;;2.83;1.65;;;;;;;12.73;37.12;101798.78;5007500;28;20415;-80
2023/02/18 07:22:21;;;;;;;3.63;2.00;;;;;;;12.78;37.77;101799.47;5009479;28;20049;-80
2023/02/18 07:24:53;;;;;;;2.38;1.83;;;;;;;12.67;37.41;101780.84;5009328;28;20042;-80
2023/02/18 07:27:19;;;;;;;4.10;1.33;;;;;;;12.78;37.39;101807.25;4993307;28;20053;-80
2023/02/18 07:29:44;;;;;;;3.03;1.42;;;;;;;12.88;37.17;101816.38;4993351;28;20501;-81
2023/02/18 07:32:14;;;;;;;2.03;1.45;;;;;;;12.96;36.86;101812.59;4993383;28;20117;-81
2023/02/18 07:34:39;;;;;;;3.55;1.33;;;;;;;13.01;36.47;101815.88;4993246;28;20469;-81
2023/02/18 07:37:08;;;;;;;3.28;1.77;;;;;;;13.09;36.79;101814.66;5009351;28;20027;-81
2023/02/18 07:39:38;;;;;;;1.58;1.27;;;;;;;13.06;36.36;101808.72;5009157;28;20076;-80
2023/02/18 07:42:04;;;;;;;2.00;1.70;;;;;;;13.25;36.33;101822.69;4993183;28;20026;-80
2023/02/18 07:44:29;;;;;;;2.20;1.40;;;;;;;13.19;36.26;101810.81;5009402;28;20037;-80
2023/02/18 07:46:55;;;;;;;2.55;1.88;;;;;;;13.20;36.48;101807.31;4993709;28;20042;-81
2023/02/18 07:49:20;;;;;;;2.75;1.77;;;;;;;13.25;36.45;101809.69;5009141;28;20038;-80
2023/02/18 07:51:47;;;;;;;4.53;1.77;;;;;;;13.32;36.57;101805.94;5008992;28;20034;-80
2023/02/18 07:54:12;;;;;;;3.67;1.92;;;;;;;13.41;36.25;101822.91;4992874;28;20026;-81
2023/02/18 07:56:38;;;;;;;3.90;2.17;;;;;;;13.31;35.87;101793.88;4992874;28;20460;-81
2023/02/18 07:59:04;;;;;;;5.72;1.83;;;;;;;13.44;36.48;101817.56;4992937;28;20117;-81
2023/02/18 08:01:29;;;;;;;4.20;2.22;;;;;;;13.47;36.37;101826.13;4992367;28;20432;-80
2023/02/18 08:03:55;;;;;;;2.47;1.55;;;;;;;13.46;36.57;101834.78;4976529;28;20037;-81
2023/02/18 08:06:27;;;;;;;3.67;2.28;;;;;;;13.33;36.67;101812.84;5008951;28;20089;-81
2023/02/18 08:08:52;;;;;;;3.10;1.73;;;;;;;13.44;36.40;101826.22;4992926;28;20541;-81
2023/02/18 08:11:18;;;;;;;2.08;1.60;;;;;;;13.57;36.26;101830.91;4992320;28;20038;-80
2023/02/18 08:13:43;;;;;;;2.88;2.00;;;;;;;13.52;36.00;101827.66;4975978;28;20052;-80
2023/02/18 08:16:09;;;;;;;2.63;1.63;;;;;;;13.49;37.08;101821.69;4992018;28;20034;-80
2023/02/18 08:18:34;;;;;;;3.35;1.75;;;;;;;13.53;36.48;101830.19;4992066;28;20042;-81
2023/02/18 08:21:00;;;;;;;3.65;2.38;;;;;;;13.51;36.15;101821.63;5008953;28;20031;-80
2023/02/18 08:23:25;;;;;;;2.47;1.80;;;;;;;13.55;36.35;101823.16;4993532;28;20088;-80
2023/02/18 08:25:52;;;;;;;2.72;1.80;;;;;;;13.64;35.96;101832.34;5008517;28;20033;-81
2023/02/18 08:28:18;;;;;;;6.93;3.50;;;;;;;13.69;35.85;101844.25;5008302;28;20506;-80
2023/02/18 08:30:48;;;;;;;1.65;1.40;;;;;;;13.69;36.01;101836.44;4991128;28;20137;-81
2023/02/18 08:33:13;;;;;;;4.10;2.10;;;;;;;13.60;35.78;101803.03;4975687;28;20586;-81
2023/02/18 08:35:39;;;;;;;1.48;0.82;;;;;;;13.75;36.03;101840.53;4975881;28;20034;-81
2023/02/18 08:38:04;;;;;;;3.10;2.72;;;;;;;13.68;35.85;101818.31;4991771;28;20026;-81
2023/02/18 08:40:30;;;;;;;0.75;0.75;;;;;;;13.68;36.05;101818.31;5008335;28;20035;-80
2023/02/18 08:42:55;;;;;;;1.25;1.00;;;;;;;13.59;35.87;101809.16;4992887;28;20502;-80
2023/02/18 08:45:20;;;;;;;5.13;3.78;;;;;;;13.82;35.93;101839.34;5008230;28;20039;-81
2023/02/18 08:47:46;;;;;;;1.85;0.95;;;;;;;13.81;35.73;101816.88;5008083;28;20037;-81
2023/02/18 08:50:11;;;;;;;1.98;1.50;;;;;;;13.79;36.15;101834.28;5008126;28;20498;-81
2023/02/18 08:52:37;;;;;;;2.83;1.83;;;;;;;13.96;35.72;101841.34;5007897;28;20038;-80
2023/02/18 08:55:03;;;;;;;2.25;1.35;;;;;;;14.06;35.52;101833.09;4991691;28;20464;-81
2023/02/18 08:57:29;;;;;;;6.03;2.33;;;;;;;13.98;35.45;101811.78;5007520;28;20038;-81
2023/02/18 08:59:54;;;;;;;3.22;1.45;;;;;;;14.23;35.17;101834.09;4991348;28;20471;-81
2023/02/18 09:02:20;;;;;;;2.95;1.90;;;;;;;14.33;35.46;101837.97;5008196;28;20026;-81
2023/02/18 09:04:45;;;;;;;3.78;1.98;;;;;;;14.40;34.76;101831.56;4991447;28;20494;-81
2023/02/18 09:07:11;;;;;;;2.65;1.90;;;;;;;14.51;34.57;101829.34;5007828;28;20034;-81
2023/02/18 09:09:36;;;;;;;2.83;1.77;;;;;;;14.53;34.39;101824.91;4991345;28;20030;-81
2023/02/18 09:12:02;;;;;;;2.05;1.33;;;;;;;14.54;34.09;101831.78;4992626;28;20601;-81
2023/02/18 09:14:27;;;;;;;2.72;1.80;;;;;;;14.59;34.42;101835.03;4991005;28;20034;-81
2023/02/18 09:16:53;;;;;;;4.50;2.35;;;;;;;14.52;34.19;101827.59;4991156;28;20034;-81
2023/02/18 09:19:18;;;;;;;2.33;2.13;;;;;;;14.52;33.83;101838.84;4991028;28;20037;-81
2023/02/18 09:21:43;;;;;;;2.58;1.50;;;;;;;14.58;34.68;101842.94;4991180;28;20038;-81
2023/02/18 09:24:09;;;;;;;2.72;1.73;;;;;;;14.55;34.02;101832.63;4991203;28;20490;-81
2023/02/18 09:26:34;;;;;;;1.45;0.85;;;;;;;14.57;34.19;101838.66;4991149;28;20030;-81
2023/02/18 09:29:00;;;;;;;2.35;1.73;;;;;;;14.68;33.75;101849.41;4974427;28;20568;-81
2023/02/18 09:31:26;;;;;;;2.45;1.83;;;;;;;14.66;33.86;101839.97;5007103;28;20034;-81
2023/02/18 09:33:57;;;;;;;2.42;1.55;;;;;;;14.60;34.40;101818.50;5007389;28;20073;-81
2023/02/18 09:36:22;;;;;;;2.78;2.05;;;;;;;14.58;34.37;101812.53;4991102;28;20028;-80
2023/02/18 09:38:48;;;;;;;2.88;1.77;;;;;;;14.78;34.37;101844.59;4990821;28;20026;-81
2023/02/18 09:41:37;;;;;;;5.18;1.92;;;;;;;14.82;34.32;101844.38;4990910;28;20117;-81
2023/02/18 09:44:15;;;;;;;1.48;1.15;;;;;;;14.75;34.54;101827.38;5005083;28;20057;-81
2023/02/18 09:46:55;;;;;;;4.40;2.72;;;;;;;14.86;34.04;101850.31;4990452;28;20532;-81
2023/02/18 09:49:24;;;;;;;2.05;1.38;;;;;;;14.84;34.31;101845.16;4990447;28;20042;-81
2023/02/18 09:51:49;;;;;;;1.42;0.98;;;;;;;14.86;34.23;101847.69;5007241;28;20038;-81
2023/02/18 09:54:16;;;;;;;1.65;1.30;;;;;;;14.87;34.24;101844.19;4990261;28;20030;-80
2023/02/18 09:56:42;;;;;;;3.05;1.85;;;;;;;14.87;33.48;101823.34;4973951;28;20023;-81
2023/02/18 09:59:12;;;;;;;1.08;0.70;;;;;;;15.06;33.86;101829.34;4974262;28;20061;-81
2023/02/18 10:01:38;;;;;;;1.70;1.20;;;;;;;15.10;33.63;101817.84;4974245;28;20409;-81
2023/02/18 10:04:17;;;;;;;4.05;1.83;;;;;;;15.03;33.79;101781.72;4974235;28;20027;-80
2023/02/18 10:06:42;;;;;;;3.17;2.17;;;;;;;15.34;33.75;101817.53;4991741;28;20109;-81
2023/02/18 10:09:20;;;;;;;3.95;2.17;;;;;;;15.40;33.12;101805.06;4990229;28;20034;-81
2023/02/18 10:11:50;;;;;;;4.25;3.08;;;;;;;15.54;33.45;101812.19;4973881;28;20064;-81
2023/02/18 10:14:16;;;;;;;2.83;1.73;;;;;;;15.64;32.69;101818.66;4990062;28;20030;-80
2023/02/18 10:16:42;;;;;;;5.43;2.85;;;;;;;15.77;33.23;101801.44;4989979;28;20037;-81
2023/02/18 10:19:20;;;;;;;4.68;1.95;;;;;;;15.98;32.41;101825.56;4990310;28;20045;-81
2023/02/18 10:21:45;;;;;;;3.85;2.47;;;;;;;16.09;32.62;101816.31;4991104;28;20038;-80
2023/02/18 10:24:32;;;;;;;4.72;2.10;;;;;;;16.17;32.57;101820.22;4990019;28;20034;-81
2023/02/18 10:26:58;;;;;;;3.47;1.80;;;;;;;16.09;31.98;101796.28;5006213;28;20096;-81
2023/02/18 10:29:24;;;;;;;2.85;2.03;;;;;;;16.13;32.13;101778.72;4989797;28;20490;-81
2023/02/18 10:32:05;;;;;;;2.90;1.92;;;;;;;16.29;31.78;101800.44;4990100;28;20026;-81
2023/02/18 10:34:49;;;;;;;1.33;1.00;;;;;;;16.28;31.32;101786.53;4989990;28;20030;-81
2023/02/18 10:37:29;;;;;;;3.78;2.05;;;;;;;16.32;31.57;101800.25;4990857;28;20518;-81
2023/02/18 10:40:12;;;;;;;2.75;1.58;;;;;;;16.43;30.80;101799.69;5006109;28;20120;-81
2023/02/18 10:42:37;;;;;;;;;;;;;;;16.47;30.94;101795.97;4990040;28;20037;-81
2023/02/18 10:45:20;;;;;;;3.70;1.65;;;;;;;16.46;30.95;101796.91;4991141;28;19914;-81
2023/02/18 10:47:58;;;;;;;2.38;1.33;;;;;;;16.41;31.40;101788.47;5006084;28;20084;-81
2023/02/18 10:50:43;;;;;;;1.27;1.17;;;;;;;16.25;31.42;101752.78;5006335;28;20465;-81
2023/02/18 10:53:31;;;;;;;3.33;1.88;;;;;;;16.41;30.97;101775.41;4989768;28;20031;-81
2023/02/18 10:55:59;;;;;;;3.22;1.67;;;;;;;16.38;31.01;101760.75;5008955;28;20034;-81
2023/02/18 10:58:26;;;;;;;2.63;1.40;;;;;;;16.53;31.27;101779.97;5009907;28;20474;-81
2023/02/18 11:00:51;;;;;;;5.28;2.63;;;;;;;16.55;31.98;101771.13;5010204;28;20026;-80
2023/02/18 11:03:21;;;;;;;2.67;1.83;;;;;;;16.53;31.39;101769.53;4993717;28;20030;-81
2023/02/18 11:05:50;;;;;;;3.60;1.90;;;;;;;16.57;31.33;101765.81;5010087;28;20036;-81
2023/02/18 11:08:38;;;;;;;3.05;1.73;;;;;;;16.44;31.06;101749.16;5010031;28;20113;-81
2023/02/18 11:11:19;;;;;;;3.47;1.92;;;;;;;16.57;30.91;101766.66;4993763;28;20068;-81
2023/02/18 11:13:50;;;;;;;1.85;1.42;;;;;;;16.64;31.53;101762.78;4993411;28;20088;-81
2023/02/18 11:16:15;;;;;;;4.07;2.22;;;;;;;16.68;31.32;101758.25;4993606;28;20413;-81
2023/02/18 11:18:44;;;;;;;5.65;2.72;;;;;;;16.71;31.53;101752.00;4993550;28;20117;-81
2023/02/18 11:21:30;;;;;;;2.42;1.55;;;;;;;16.82;31.28;101754.88;4993718;28;20117;-81
2023/02/18 11:23:55;;;;;;;3.78;1.92;;;;;;;16.79;31.44;101755.00;4977016;28;20092;-81
2023/02/18 11:26:29;;;;;;;4.55;1.75;;;;;;;16.69;31.40;101720.72;4993418;28;20034;-80
2023/02/18 11:29:05;;;;;;;3.80;2.28;;;;;;;16.89;31.38;101738.72;4976902;28;20424;-81
2023/02/18 11:31:41;;;;;;;2.42;1.45;;;;;;;16.91;31.42;101744.72;4992996;28;20026;-81
2023/02/18 11:34:13;;;;;;;5.63;1.83;;;;;;;16.86;31.71;101736.28;5009801;28;20034;-81